Time;durP1;ratioP1;P1;durP2;ratioP2;P2;SDS_P1;SDS_P2;PMS_P1;PMS_P2;Temp;Humidity;BMP_temperature;BMP_pressure;BME280_temperature;BME280_humidity;BME280_pressure;Samples;Min_cycle;Max_cycle;Signal;HPM_P1;HPM_P2
2024/04/05 07:18:36;;;;;;;2.17;1.33;;;24.50;63.10;;;;;;5089328;22;20550;-91
2024/04/05 07:21:03;;;;;;;2.80;1.83;;;24.60;64.00;;;;;;5079955;28;20460;-91
2024/04/05 07:23:30;;;;;;;2.90;1.63;;;24.60;62.90;;;;;;5062748;28;20446;-91
2024/04/05 07:26:00;;;;;;;2.90;1.63;;;24.60;62.60;;;;;;5059667;28;20517;-96
2024/04/05 07:28:27;;;;;;;4.10;1.40;;;24.70;62.70;;;;;;5057421;28;20521;-93
2024/04/05 07:30:53;;;;;;;4.53;2.13;;;24.70;62.50;;;;;;5058173;28;20506;-93
2024/04/05 07:36:19;;;;;;;3.20;1.80;;;24.70;62.70;;;;;;5075348;22;20437;-96
2024/04/05 07:41:48;;;;;;;2.83;2.00;;;24.70;63.00;;;;;;5082976;28;20459;-93
2024/04/05 07:44:20;;;;;;;2.47;1.60;;;24.60;63.10;;;;;;5087562;28;20535;-93
2024/04/05 07:46:47;;;;;;;3.37;1.40;;;24.60;63.10;;;;;;5081334;28;20539;-92
2024/04/05 07:49:13;;;;;;;3.67;1.63;;;24.60;63.20;;;;;;5076051;28;20444;-93
2024/04/05 07:51:41;;;;;;;5.10;1.57;;;24.60;63.30;;;;;;5076118;28;20492;-90
2024/04/05 07:54:08;;;;;;;4.07;2.03;;;24.60;63.30;;;;;;5075406;28;20672;-90
2024/04/05 07:56:35;;;;;;;5.00;2.00;;;24.60;63.30;;;;;;5075485;28;20444;-94
2024/04/05 07:59:02;;;;;;;3.03;1.30;;;24.60;63.30;;;;;;5076724;28;20540;-92
2024/04/05 08:01:29;;;;;;;2.60;1.67;;;24.70;63.40;;;;;;5083747;28;20475;-88
2024/04/05 08:03:58;;;;;;;2.93;1.53;;;24.70;63.50;;;;;;5078914;28;20213;-89
2024/04/05 08:06:25;;;;;;;3.50;1.33;;;24.70;63.40;;;;;;5079373;28;20440;-87
2024/04/05 08:08:52;;;;;;;3.83;1.63;;;24.70;63.40;;;;;;5082065;28;20445;-90
2024/04/05 08:11:19;;;;;;;2.40;1.30;;;24.70;63.50;;;;;;5066084;28;20453;-90
2024/04/05 08:13:44;;;;;;;2.80;1.43;;;24.60;63.30;;;;;;5073445;28;20456;-89
2024/04/05 08:16:18;;;;;;;2.47;1.30;;;24.70;63.40;;;;;;5060997;28;20437;-90
2024/04/05 08:18:44;;;;;;;2.40;1.67;;;24.70;63.30;;;;;;5058410;28;20626;-90
2024/04/05 08:21:10;;;;;;;3.40;1.90;;;24.70;63.20;;;;;;5057579;28;20480;-90
2024/04/05 08:23:37;;;;;;;4.13;1.43;;;24.70;63.20;;;;;;5056783;28;20450;-90
2024/04/05 08:26:04;;;;;;;3.87;1.70;;;24.70;63.20;;;;;;5057945;28;20194;-90
2024/04/05 08:28:31;;;;;;;3.87;1.87;;;24.70;63.00;;;;;;5057266;28;20453;-89
2024/04/05 08:30:57;;;;;;;4.03;1.60;;;24.70;63.20;;;;;;5074757;28;20479;-90
2024/04/05 08:33:28;;;;;;;2.53;1.40;;;24.70;62.80;;;;;;5076815;28;20495;-90
2024/04/05 08:35:56;;;;;;;2.63;1.20;;;24.80;63.00;;;;;;5078207;28;20487;-90
2024/04/05 08:38:23;;;;;;;3.30;1.30;;;24.80;63.20;;;;;;5056403;28;20473;-90
2024/04/05 08:40:49;;;;;;;2.50;1.27;;;24.80;63.20;;;;;;5056963;28;20441;-90
2024/04/05 08:43:18;;;;;;;3.00;1.37;;;24.80;63.20;;;;;;5060217;28;20445;-90
2024/04/05 08:45:44;;;;;;;2.27;1.10;;;24.80;64.00;;;;;;5061128;28;20460;-90
2024/04/05 08:48:11;;;;;;;4.97;1.90;;;24.80;63.20;;;;;;5056426;28;20454;-90
2024/04/05 08:50:38;;;;;;;3.37;1.60;;;24.80;63.20;;;;;;5057665;28;20473;-90
2024/04/05 08:53:07;;;;;;;2.30;1.40;;;24.80;63.20;;;;;;5062167;28;20496;-90
2024/04/05 08:55:35;;;;;;;1.80;1.07;;;24.80;63.20;;;;;;5061743;28;20441;-90
2024/04/05 08:58:03;;;;;;;2.10;1.30;;;24.80;63.20;;;;;;5057957;28;20450;-90
2024/04/05 09:00:30;;;;;;;3.90;1.67;;;24.70;63.10;;;;;;5058343;28;20775;-90
2024/04/05 09:03:01;;;;;;;2.20;1.37;;;24.70;63.00;;;;;;5056276;28;20450;-90
2024/04/05 09:05:27;;;;;;;2.50;1.40;;;24.70;63.10;;;;;;5058169;28;20441;-90
2024/04/05 09:08:03;;;;;;;2.73;1.27;;;24.70;63.20;;;;;;5057067;28;20843;-90
2024/04/05 09:10:29;;;;;;;3.33;1.27;;;24.70;63.20;;;;;;5056867;28;20435;-90
2024/04/05 09:12:56;;;;;;;2.13;1.10;;;24.70;63.10;;;;;;5058429;28;20476;-90
2024/04/05 09:15:24;;;;;;;3.73;1.30;;;24.70;63.20;;;;;;5059120;28;20794;-88
2024/04/05 09:17:53;;;;;;;2.27;1.17;;;24.70;63.30;;;;;;5059440;28;20517;-90
2024/04/05 09:20:23;;;;;;;2.20;1.10;;;24.70;63.30;;;;;;5056667;28;20445;-90
2024/04/05 09:22:50;;;;;;;2.93;1.57;;;24.60;63.20;;;;;;5057600;28;20479;-90
2024/04/05 09:25:17;;;;;;;2.40;1.40;;;24.60;63.20;;;;;;5056571;28;20433;-90
2024/04/05 09:27:44;;;;;;;4.17;1.30;;;24.60;63.20;;;;;;5056389;28;20451;-90
2024/04/05 09:30:10;;;;;;;7.40;2.20;;;24.60;63.10;;;;;;5058994;28;20437;-90
2024/04/05 09:32:38;;;;;;;2.00;1.20;;;24.60;63.20;;;;;;5064378;28;20568;-90
2024/04/05 09:35:09;;;;;;;2.63;1.30;;;24.60;63.20;;;;;;5058180;28;20845;-90
2024/04/05 09:37:36;;;;;;;2.03;1.20;;;24.60;63.20;;;;;;5056170;28;20887;-90
2024/04/05 09:40:12;;;;;;;1.80;1.00;;;24.60;63.10;;;;;;5059224;28;20456;-95
2024/04/05 09:56:08;;;;;;;2.47;1.30;;;24.70;62.10;;;;;;5060877;22;20499;-90
2024/04/05 09:58:34;;;;;;;2.20;1.07;;;24.70;62.50;;;;;;5053124;28;20453;-90
2024/04/05 10:01:07;;;;;;;3.60;1.17;;;24.70;62.70;;;;;;5055047;28;20855;-89
2024/04/05 10:03:36;;;;;;;4.10;1.30;;;24.80;62.80;;;;;;5054456;28;20792;-90
2024/04/05 10:06:12;;;;;;;2.87;1.23;;;24.70;62.60;;;;;;5055869;28;20433;-89
2024/04/05 10:08:39;;;;;;;2.13;1.17;;;24.70;62.60;;;;;;5057896;28;20441;-89
2024/04/05 10:11:11;;;;;;;2.83;1.20;;;24.70;62.50;;;;;;5058554;28;20522;-90
2024/04/05 10:13:38;;;;;;;2.43;1.10;;;24.80;62.70;;;;;;5058535;28;20488;-89
2024/04/05 10:16:05;;;;;;;4.07;1.57;;;24.80;62.60;;;;;;5058012;28;20788;-89
2024/04/05 10:18:34;;;;;;;2.20;1.23;;;24.80;62.60;;;;;;5058307;28;20437;-90
2024/04/05 10:21:03;;;;;;;2.57;1.30;;;24.90;62.60;;;;;;5060632;28;20802;-89
2024/04/05 10:23:29;;;;;;;3.63;1.00;;;24.80;62.50;;;;;;5060514;28;20442;-90
2024/04/05 10:25:56;;;;;;;2.03;1.00;;;24.80;62.50;;;;;;5059117;28;20532;-89
2024/04/05 10:28:23;;;;;;;3.70;1.77;;;24.80;62.50;;;;;;5081121;28;20455;-88
2024/04/05 10:30:50;;;;;;;2.53;1.23;;;24.80;62.60;;;;;;5081089;28;20484;-89
2024/04/05 10:33:20;;;;;;;3.20;1.20;;;24.90;62.70;;;;;;5059148;28;20839;-92
2024/04/05 10:35:48;;;;;;;2.90;1.07;;;24.80;62.50;;;;;;5059259;28;20446;-89
2024/04/05 10:38:14;;;;;;;2.70;1.20;;;24.80;62.40;;;;;;5057355;28;20445;-91
2024/04/05 10:40:41;;;;;;;1.90;1.00;;;24.80;62.60;;;;;;5057222;28;20441;-90
2024/04/05 10:43:07;;;;;;;1.97;1.20;;;24.80;61.90;;;;;;5057315;28;20445;-90
2024/04/05 10:45:36;;;;;;;1.80;0.90;;;24.80;62.10;;;;;;5056425;28;20472;-90
2024/04/05 10:48:04;;;;;;;5.13;1.10;;;24.80;61.80;;;;;;5055979;28;20438;-90
2024/04/05 10:50:31;;;;;;;1.93;1.10;;;24.80;61.90;;;;;;5056497;28;20462;-91
2024/04/05 10:52:57;;;;;;;2.53;1.10;;;24.80;61.90;;;;;;5056346;28;20494;-90
2024/04/05 10:55:25;;;;;;;2.30;1.20;;;24.80;61.90;;;;;;5056265;28;20477;-89
2024/04/05 10:57:51;;;;;;;3.00;1.10;;;24.70;61.90;;;;;;5056299;28;20652;-90
2024/04/05 11:00:19;;;;;;;1.90;1.10;;;24.80;62.10;;;;;;5055570;28;20476;-90
2024/04/05 11:02:47;;;;;;;2.43;1.20;;;24.70;61.90;;;;;;5056456;28;20669;-90
2024/04/05 11:05:15;;;;;;;1.60;0.90;;;24.70;62.00;;;;;;5056305;28;20848;-90
2024/04/05 11:07:42;;;;;;;2.47;1.10;;;24.70;62.10;;;;;;5056089;28;20448;-90
2024/04/05 11:10:16;;;;;;;2.43;1.10;;;24.70;62.00;;;;;;5056525;28;20786;-88
2024/04/05 11:12:42;;;;;;;2.40;1.10;;;24.70;61.90;;;;;;5055702;28;20533;-87
2024/04/05 11:15:10;;;;;;;2.80;1.00;;;24.70;62.00;;;;;;5055306;28;20445;-90
2024/04/05 11:17:38;;;;;;;2.07;0.97;;;24.80;62.10;;;;;;5076364;28;20852;-92
2024/04/05 11:20:09;;;;;;;3.77;1.17;;;24.80;62.10;;;;;;5077482;28;20460;-92
2024/04/05 11:22:39;;;;;;;1.70;0.90;;;24.80;62.20;;;;;;5077441;28;20449;-91
2024/04/05 11:25:07;;;;;;;3.13;1.20;;;24.80;62.40;;;;;;5077301;28;20500;-92
2024/04/05 11:27:37;;;;;;;4.57;1.20;;;24.80;62.40;;;;;;5077224;28;20444;-91
2024/04/05 11:30:12;;;;;;;1.93;1.23;;;24.80;62.40;;;;;;5075962;28;20444;-92
2024/04/05 11:32:41;;;;;;;4.23;1.00;;;24.80;62.30;;;;;;5076909;28;20532;-92
2024/04/05 11:35:12;;;;;;;4.57;1.50;;;24.90;62.50;;;;;;5076933;28;20862;-92
2024/04/05 11:37:40;;;;;;;2.13;1.07;;;24.90;62.40;;;;;;5076619;28;20468;-92
2024/04/05 11:40:09;;;;;;;9.53;1.10;;;24.90;62.40;;;;;;5076324;28;20440;-92
2024/04/05 11:42:39;;;;;;;2.73;1.00;;;24.90;62.40;;;;;;5076613;28;20447;-92
2024/04/05 11:45:20;;;;;;;1.50;0.90;;;24.90;62.40;;;;;;5075946;28;20449;-92
2024/04/05 11:47:48;;;;;;;4.93;1.33;;;24.90;62.30;;;;;;5076195;28;20515;-92
2024/04/05 11:50:16;;;;;;;2.87;1.23;;;24.90;62.30;;;;;;5076272;28;20877;-92
2024/04/05 11:52:42;;;;;;;1.83;1.23;;;24.90;62.30;;;;;;5076891;28;20789;-91
2024/04/05 11:55:09;;;;;;;1.90;0.90;;;25.00;62.40;;;;;;5075221;28;20452;-92
2024/04/05 11:57:35;;;;;;;1.80;1.07;;;25.00;62.50;;;;;;5075774;28;20468;-92
2024/04/05 12:00:10;;;;;;;2.10;0.97;;;25.00;62.40;;;;;;5084387;28;20531;-92
2024/04/05 12:02:37;;;;;;;2.60;0.93;;;24.90;62.40;;;;;;5084436;28;20577;-92
2024/04/05 12:05:05;;;;;;;3.67;1.10;;;25.00;62.50;;;;;;5078759;28;20886;-92
2024/04/05 12:07:34;;;;;;;2.53;1.10;;;25.00;62.50;;;;;;5076112;28;20437;-93
2024/04/05 12:10:01;;;;;;;2.07;1.00;;;25.00;62.40;;;;;;5076427;28;20449;-93
2024/04/05 12:12:30;;;;;;;2.27;0.90;;;25.00;62.20;;;;;;5076147;28;20472;-94
2024/04/05 12:14:57;;;;;;;2.27;1.10;;;25.00;62.20;;;;;;5076955;28;20543;-94
2024/04/05 12:17:24;;;;;;;1.87;0.97;;;25.00;62.20;;;;;;5075578;28;20445;-93
2024/04/05 12:19:50;;;;;;;1.80;1.00;;;25.10;62.20;;;;;;5075095;28;20493;-93
2024/04/05 12:22:16;;;;;;;5.13;1.00;;;25.00;62.20;;;;;;5075315;28;20943;-93
2024/04/05 12:24:49;;;;;;;2.80;1.20;;;25.10;62.30;;;;;;5075835;28;20539;-93
2024/04/05 12:27:15;;;;;;;1.80;1.13;;;25.00;62.30;;;;;;5075767;28;20436;-93
2024/04/05 12:32:55;;;;;;;2.80;1.17;;;25.00;62.20;;;;;;5160008;22;20495;-93
2024/04/05 12:35:23;;;;;;;1.87;1.00;;;25.00;61.90;;;;;;5056952;28;20441;-94
2024/04/05 12:37:58;;;;;;;2.73;1.20;;;24.90;61.70;;;;;;5057315;28;20453;-94
2024/04/05 12:40:52;;;;;;;3.40;0.90;;;25.00;62.20;;;;;;5056770;28;20475;-95
2024/04/05 12:43:32;;;;;;;7.07;0.93;;;25.10;62.30;;;;;;5072641;28;20417;-93
2024/04/05 12:46:00;;;;;;;3.17;1.30;;;25.10;62.50;;;;;;5078701;28;20421;-90
2024/04/05 12:55:16;;;;;;;4.67;1.50;;;25.10;62.00;;;;;;5000094;28;20493;-95
2024/04/05 13:11:05;;;;;;;2.57;1.13;;;25.00;62.00;;;;;;3077449;22;20477;-94
2024/04/05 13:13:31;;;;;;;7.17;1.23;;;25.00;62.10;;;;;;5072243;22;20488;-95
2024/04/05 13:15:58;;;;;;;2.60;1.10;;;25.00;62.10;;;;;;5054409;28;20464;-88
2024/04/05 13:18:24;;;;;;;3.13;1.20;;;25.00;62.00;;;;;;5053541;28;20805;-85
2024/04/05 13:20:51;;;;;;;7.10;1.77;;;25.10;62.30;;;;;;5053372;28;20457;-84
2024/04/05 13:23:17;;;;;;;2.07;1.10;;;25.00;62.40;;;;;;5053625;28;20622;-84
2024/04/05 13:25:43;;;;;;;2.83;1.00;;;25.00;62.40;;;;;;5050195;28;20548;-87
2024/04/05 13:28:11;;;;;;;4.73;1.60;;;25.10;62.60;;;;;;5053894;28;20309;-83
2024/04/05 13:30:37;;;;;;;2.10;1.00;;;25.00;62.50;;;;;;5053980;28;20547;-84
2024/04/05 13:33:04;;;;;;;4.57;1.10;;;25.00;62.50;;;;;;5052302;28;20485;-83
2024/04/05 13:35:31;;;;;;;4.33;1.50;;;25.10;62.50;;;;;;5054926;28;20456;-88
2024/04/05 13:37:59;;;;;;;2.47;1.00;;;25.10;62.30;;;;;;5076088;28;20455;-86
2024/04/05 13:40:26;;;;;;;4.80;1.70;;;25.10;61.90;;;;;;5073505;28;20445;-88
2024/04/05 13:42:52;;;;;;;5.80;1.00;;;25.10;62.00;;;;;;5061659;28;20789;-89
2024/04/05 13:45:28;;;;;;;5.50;1.20;;;25.00;62.00;;;;;;5058227;28;20445;-89
2024/04/05 13:47:53;;;;;;;3.77;1.37;;;25.10;65.00;;;;;;5069678;28;20440;-94
2024/04/05 13:50:20;;;;;;;6.33;1.20;;;25.10;65.00;;;;;;5058855;28;20465;-88
2024/04/05 13:52:46;;;;;;;3.60;1.33;;;25.00;66.10;;;;;;5066172;28;20210;-91
2024/04/05 13:55:13;;;;;;;4.70;1.30;;;25.00;65.70;;;;;;5078106;28;20450;-89
2024/04/05 13:57:39;;;;;;;4.90;1.43;;;25.00;65.10;;;;;;5078174;28;20653;-94
2024/04/05 14:00:13;;;;;;;6.20;1.30;;;25.00;65.00;;;;;;5080663;28;20448;-94
2024/04/05 14:02:40;;;;;;;2.83;1.43;;;25.00;65.00;;;;;;5077674;28;20445;-89
2024/04/05 14:05:07;;;;;;;6.50;1.20;;;25.00;64.90;;;;;;5073215;28;20441;-91
2024/04/05 14:07:42;;;;;;;3.30;1.07;;;25.00;64.90;;;;;;5088968;28;20504;-95
2024/04/05 14:10:09;;;;;;;2.77;0.90;;;25.00;64.90;;;;;;5072151;28;20460;-93
2024/04/05 14:12:36;;;;;;;5.87;1.63;;;25.00;64.70;;;;;;5062219;28;20475;-91
2024/04/05 14:15:04;;;;;;;3.60;1.17;;;25.00;64.90;;;;;;5061345;28;20591;-90
2024/04/05 14:17:32;;;;;;;3.87;1.10;;;25.00;64.70;;;;;;5019397;28;20868;-91
2024/04/05 14:20:00;;;;;;;3.00;1.03;;;25.00;64.70;;;;;;5054689;28;20740;-94
2024/04/05 14:22:26;;;;;;;9.77;1.47;;;25.00;64.70;;;;;;5057621;28;20432;-90
2024/04/05 14:24:53;;;;;;;3.30;1.23;;;25.00;64.70;;;;;;5059652;28;20534;-92
2024/04/05 14:27:19;;;;;;;3.20;1.10;;;25.00;64.70;;;;;;5057325;28;20218;-88
2024/04/05 14:29:45;;;;;;;6.53;1.37;;;25.00;64.50;;;;;;5056550;28;20563;-90
2024/04/05 14:32:11;;;;;;;6.70;1.43;;;25.00;64.50;;;;;;5057220;28;20199;-89
2024/04/05 14:34:38;;;;;;;6.30;1.20;;;25.00;64.30;;;;;;5058270;28;20473;-90
2024/04/05 14:37:06;;;;;;;3.20;1.10;;;25.10;64.20;;;;;;5058204;28;20202;-88
2024/04/05 14:39:33;;;;;;;4.03;1.40;;;25.20;64.20;;;;;;5057956;28;20441;-90
2024/04/05 14:42:00;;;;;;;3.30;1.30;;;25.10;64.00;;;;;;5060943;28;20441;-92
2024/04/05 14:44:28;;;;;;;7.23;1.40;;;25.20;64.00;;;;;;5061375;28;20453;-93
2024/04/05 14:46:54;;;;;;;2.63;1.20;;;25.20;63.90;;;;;;5064398;28;20532;-92
2024/04/05 14:49:25;;;;;;;4.10;1.20;;;25.20;63.10;;;;;;5064091;28;20497;-89
2024/04/05 14:51:51;;;;;;;4.80;1.37;;;25.10;62.80;;;;;;5057457;28;20434;-95
2024/04/05 14:54:19;;;;;;;1.70;0.90;;;25.20;62.90;;;;;;5059724;28;20568;-88
2024/04/05 14:56:45;;;;;;;2.93;1.10;;;25.20;63.20;;;;;;5057317;28;20198;-93
2024/04/05 14:59:12;;;;;;;4.73;1.10;;;25.20;63.10;;;;;;5056649;28;20461;-89
2024/04/05 15:01:38;;;;;;;9.07;1.47;;;25.30;63.50;;;;;;5057015;28;20195;-92
2024/04/05 15:04:05;;;;;;;2.63;1.13;;;25.20;63.30;;;;;;5055841;28;20531;-86
2024/04/05 15:06:31;;;;;;;2.33;1.00;;;25.20;63.30;;;;;;5042769;28;20446;-84
2024/04/05 15:08:57;;;;;;;5.40;1.67;;;25.20;64.20;;;;;;5034770;28;20980;-84
2024/04/05 15:11:26;;;;;;;2.30;1.00;;;25.20;63.20;;;;;;5035566;28;20283;-85
2024/04/05 15:13:53;;;;;;;2.73;1.30;;;25.30;63.10;;;;;;5038788;28;20850;-84
2024/04/05 15:16:19;;;;;;;4.90;1.20;;;25.30;62.90;;;;;;5055459;28;20441;-86
2024/04/05 15:18:45;;;;;;;3.90;1.13;;;25.30;63.00;;;;;;5055128;28;20478;-92
2024/04/05 15:21:11;;;;;;;2.10;1.10;;;25.30;63.20;;;;;;5055837;28;20206;-84
2024/04/05 15:23:39;;;;;;;2.10;1.10;;;25.30;63.10;;;;;;5068034;28;20434;-90
2024/04/05 15:26:05;;;;;;;2.33;1.10;;;25.30;63.30;;;;;;5059084;28;20660;-85
2024/04/05 15:28:35;;;;;;;2.50;1.17;;;25.30;63.30;;;;;;5056330;28;20539;-93
2024/04/05 15:31:01;;;;;;;3.27;1.67;;;25.30;63.20;;;;;;5063598;28;20192;-91
2024/04/05 15:33:29;;;;;;;3.90;1.17;;;25.30;63.30;;;;;;5068923;28;20477;-87
2024/04/05 15:35:56;;;;;;;2.33;1.03;;;25.30;63.50;;;;;;5057971;28;20437;-90
2024/04/05 15:38:25;;;;;;;3.37;1.00;;;25.30;63.50;;;;;;5055368;28;20437;-85
2024/04/05 15:41:01;;;;;;;2.47;1.07;;;25.30;63.40;;;;;;5062820;28;20433;-86
2024/04/05 15:43:28;;;;;;;2.40;1.00;;;25.40;63.50;;;;;;5075683;28;20455;-87
2024/04/05 15:45:59;;;;;;;4.97;1.00;;;25.30;63.50;;;;;;5075978;28;20433;-83
2024/04/05 15:48:26;;;;;;;2.27;1.10;;;25.20;63.40;;;;;;5075051;28;20959;-87
2024/04/05 15:50:53;;;;;;;2.77;0.90;;;25.40;63.50;;;;;;5075482;28;20440;-85
2024/04/05 15:53:20;;;;;;;4.30;1.57;;;25.20;63.30;;;;;;5077212;28;20480;-84
2024/04/05 15:55:46;;;;;;;3.43;1.83;;;25.20;63.30;;;;;;5073161;28;20440;-85
2024/04/05 15:58:14;;;;;;;3.13;1.10;;;25.20;63.30;;;;;;5057275;28;20442;-85
2024/04/05 16:00:39;;;;;;;4.43;1.20;;;25.20;63.40;;;;;;5055848;28;20441;-89
2024/04/05 16:03:08;;;;;;;2.93;1.27;;;25.20;63.40;;;;;;5054574;28;20959;-86
2024/04/05 16:05:34;;;;;;;1.87;1.13;;;25.30;63.60;;;;;;5054215;28;20442;-85
2024/04/05 16:08:01;;;;;;;3.17;1.30;;;25.20;63.50;;;;;;5054270;28;20463;-91
2024/04/05 16:10:27;;;;;;;4.37;1.00;;;25.20;63.50;;;;;;5054264;28;20447;-84
2024/04/05 16:12:55;;;;;;;3.80;1.23;;;25.20;63.50;;;;;;5057199;28;20422;-87
2024/04/05 16:15:22;;;;;;;3.10;1.03;;;25.20;63.60;;;;;;5054765;28;20317;-86
2024/04/05 16:17:49;;;;;;;2.37;1.30;;;25.20;63.80;;;;;;5054513;28;20456;-89
2024/04/05 16:20:16;;;;;;;5.73;1.63;;;25.20;63.30;;;;;;5056115;28;20470;-84
2024/04/05 16:22:43;;;;;;;2.53;1.30;;;25.20;63.30;;;;;;5055621;28;20456;-90
2024/04/05 16:25:11;;;;;;;4.43;1.13;;;25.20;63.30;;;;;;5057638;28;20453;-92
2024/04/05 16:27:41;;;;;;;3.13;1.00;;;25.20;63.50;;;;;;5060948;28;20954;-94
2024/04/05 16:30:08;;;;;;;1.50;0.80;;;25.20;63.60;;;;;;5075367;28;20440;-90
2024/04/05 16:32:39;;;;;;;5.00;1.20;;;25.20;63.50;;;;;;5075831;28;20428;-89
2024/04/05 16:35:07;;;;;;;4.70;1.20;;;25.20;63.60;;;;;;5075355;28;20433;-89
2024/04/05 16:37:35;;;;;;;7.43;1.50;;;25.20;63.40;;;;;;5074632;28;20506;-92
2024/04/05 16:40:03;;;;;;;3.60;1.40;;;25.20;63.60;;;;;;5076155;28;20444;-95
2024/04/05 16:42:30;;;;;;;2.03;1.13;;;25.20;63.60;;;;;;5075274;28;20453;-91
2024/04/05 16:44:56;;;;;;;1.60;0.90;;;25.30;63.70;;;;;;5075432;28;20447;-91
2024/04/05 16:47:54;;;;;;;3.10;1.17;;;25.20;63.60;;;;;;5082587;28;20488;-91
2024/04/05 16:50:20;;;;;;;2.53;1.00;;;25.20;63.50;;;;;;5084008;22;20281;-94
2024/04/05 16:52:55;;;;;;;2.53;1.10;;;25.20;63.50;;;;;;5075485;28;20840;-96
2024/04/05 16:55:21;;;;;;;3.17;1.10;;;25.20;63.50;;;;;;5054645;28;20449;-90
2024/04/05 16:57:48;;;;;;;1.80;1.00;;;25.20;64.40;;;;;;5056433;28;20444;-92
2024/04/05 17:00:30;;;;;;;2.37;0.90;;;25.20;63.60;;;;;;5056127;28;20229;-93
2024/04/05 17:02:59;;;;;;;1.60;1.00;;;25.20;63.70;;;;;;5055584;28;20452;-89
2024/04/05 17:05:29;;;;;;;2.27;1.10;;;25.20;63.50;;;;;;5054531;28;20445;-91
2024/04/05 17:07:56;;;;;;;2.20;1.13;;;25.20;63.60;;;;;;5054430;28;20444;-84
2024/04/05 17:10:33;;;;;;;6.30;1.40;;;25.20;63.90;;;;;;5054421;28;20864;-84
2024/04/05 17:12:59;;;;;;;3.00;1.07;;;25.20;63.90;;;;;;5052965;28;20441;-84
2024/04/05 17:15:26;;;;;;;6.50;1.20;;;25.20;63.80;;;;;;5052930;28;20483;-85
2024/04/05 17:17:52;;;;;;;4.47;1.10;;;25.20;63.80;;;;;;5053760;28;20441;-84
2024/04/05 17:20:20;;;;;;;4.50;1.40;;;25.20;63.80;;;;;;5042834;28;20534;-85
2024/04/05 17:22:46;;;;;;;2.60;1.20;;;25.20;63.60;;;;;;5054512;28;20449;-84
2024/04/05 17:38:55;;;;;;;2.10;0.93;;;25.10;64.00;;;;;;5079219;23;20617;-92
2024/04/05 17:41:21;;;;;;;2.00;0.90;;;25.10;64.20;;;;;;5075644;28;20962;-92
2024/04/05 17:43:56;;;;;;;3.80;1.00;;;25.10;64.10;;;;;;5357877;22;20496;-94
2024/04/05 17:46:25;;;;;;;1.60;0.80;;;25.10;64.10;;;;;;5082654;28;20529;-94
2024/04/05 17:48:53;;;;;;;2.60;1.43;;;25.10;64.00;;;;;;5116830;22;20488;-94
2024/04/05 17:51:52;;;;;;;3.00;0.93;;;25.10;64.00;;;;;;5060986;28;20559;-94
2024/04/05 17:54:21;;;;;;;5.77;1.60;;;25.20;63.60;;;;;;5057624;28;20511;-92
2024/04/05 17:56:46;;;;;;;2.00;1.00;;;25.30;63.90;;;;;;5053221;28;20520;-86
2024/04/05 17:59:15;;;;;;;3.63;1.03;;;25.20;63.70;;;;;;5053661;28;20477;-83
2024/04/05 18:01:40;;;;;;;7.50;1.50;;;25.20;63.70;;;;;;5052882;28;20220;-85
2024/04/05 18:04:07;;;;;;;2.40;0.93;;;25.20;63.50;;;;;;5053207;28;20456;-84
2024/04/05 18:06:33;;;;;;;5.70;1.40;;;25.20;63.80;;;;;;5053015;28;20655;-85
2024/04/05 18:09:04;;;;;;;5.70;1.27;;;25.20;64.00;;;;;;5053315;28;20533;-84
2024/04/05 18:11:31;;;;;;;5.20;1.20;;;25.10;63.90;;;;;;5053827;28;20281;-84
2024/04/05 18:13:58;;;;;;;3.00;1.20;;;25.20;64.00;;;;;;5053096;28;20485;-85
2024/04/05 18:16:24;;;;;;;3.20;1.27;;;25.10;64.00;;;;;;5035056;28;20485;-84
2024/04/05 18:18:51;;;;;;;2.80;1.53;;;25.20;64.10;;;;;;5053015;28;20497;-84
2024/04/05 18:21:17;;;;;;;2.47;1.10;;;25.30;64.10;;;;;;5053176;28;20191;-84
2024/04/05 18:23:43;;;;;;;7.67;1.33;;;25.20;64.20;;;;;;5065542;28;20447;-91
2024/04/05 18:26:11;;;;;;;2.43;1.03;;;25.10;63.70;;;;;;5044363;28;20203;-86
2024/04/05 18:28:39;;;;;;;2.07;1.00;;;25.10;63.70;;;;;;5054010;28;20441;-85
2024/04/05 18:31:05;;;;;;;2.53;1.10;;;25.20;64.00;;;;;;5056977;28;20445;-87
2024/04/05 18:33:32;;;;;;;3.10;1.00;;;25.20;64.20;;;;;;5056600;28;20473;-85
2024/04/05 18:36:03;;;;;;;3.53;1.10;;;25.20;64.20;;;;;;5056795;28;20194;-85
2024/04/05 18:38:31;;;;;;;3.20;1.20;;;25.20;64.20;;;;;;5056448;28;21008;-95
2024/04/05 18:40:57;;;;;;;2.20;0.87;;;25.20;64.20;;;;;;5056714;28;20445;-85
2024/04/05 18:43:24;;;;;;;1.60;0.90;;;25.20;64.20;;;;;;5056585;28;20455;-85
2024/04/05 18:45:51;;;;;;;6.20;1.30;;;25.20;64.30;;;;;;5056150;28;20444;-84
2024/04/05 18:48:23;;;;;;;1.70;0.90;;;25.20;64.20;;;;;;5056901;28;20465;-85
2024/04/05 18:50:50;;;;;;;6.60;1.10;;;25.20;64.40;;;;;;5055679;28;20461;-85
2024/04/05 18:53:18;;;;;;;5.63;1.27;;;25.10;64.30;;;;;;5056246;28;20469;-85
2024/04/05 18:55:45;;;;;;;3.60;1.30;;;25.10;64.40;;;;;;5055853;28;20800;-84
2024/04/05 18:58:15;;;;;;;1.70;1.00;;;25.10;64.40;;;;;;5055777;28;20502;-84
2024/04/05 19:00:43;;;;;;;1.70;1.00;;;25.10;64.50;;;;;;5055843;28;20425;-83
2024/04/05 19:03:13;;;;;;;3.40;1.30;;;25.10;64.70;;;;;;5055882;28;20440;-84
2024/04/05 19:05:39;;;;;;;3.53;1.13;;;25.00;64.60;;;;;;5056080;28;20429;-91
2024/04/05 19:08:10;;;;;;;3.97;1.30;;;25.00;64.70;;;;;;5055829;28;20442;-85
2024/04/05 19:10:38;;;;;;;5.67;1.00;;;25.00;64.70;;;;;;5055930;28;20491;-85
2024/04/05 19:13:05;;;;;;;2.23;0.97;;;25.00;64.70;;;;;;5057566;28;20446;-85
2024/04/05 19:15:31;;;;;;;2.77;0.97;;;25.10;64.80;;;;;;5056110;28;20492;-84
2024/04/05 19:17:59;;;;;;;3.87;1.20;;;25.00;64.70;;;;;;5056130;28;20461;-85
2024/04/05 19:20:26;;;;;;;6.27;1.03;;;25.00;64.70;;;;;;5056323;28;20468;-85
2024/04/05 19:22:57;;;;;;;1.93;1.00;;;25.00;64.70;;;;;;5060277;28;20437;-85
2024/04/05 19:25:23;;;;;;;1.70;0.93;;;25.00;64.80;;;;;;5066573;28;20437;-84
2024/04/05 19:27:51;;;;;;;3.20;1.27;;;25.00;64.70;;;;;;5067564;28;20866;-85
2024/04/05 19:30:18;;;;;;;2.80;1.20;;;25.00;64.70;;;;;;5068081;28;20447;-84
2024/04/05 19:32:45;;;;;;;3.83;0.97;;;25.00;64.80;;;;;;5064073;28;20441;-84
2024/04/05 19:35:13;;;;;;;6.67;1.07;;;25.00;64.80;;;;;;5063344;28;20487;-84
2024/04/05 19:37:49;;;;;;;2.23;1.20;;;25.00;64.90;;;;;;5067701;28;20444;-84
2024/04/05 19:40:36;;;;;;;2.37;0.90;;;25.00;64.90;;;;;;5068829;28;20503;-85
2024/04/05 19:43:15;;;;;;;2.70;1.23;;;25.00;64.90;;;;;;5068307;28;20434;-92
2024/04/05 19:45:41;;;;;;;2.20;0.83;;;25.00;64.90;;;;;;5058062;28;20449;-86
2024/04/05 19:48:08;;;;;;;3.67;1.43;;;25.00;64.70;;;;;;5056111;28;20480;-85
2024/04/05 19:50:34;;;;;;;1.60;0.90;;;25.10;64.80;;;;;;5055959;28;20534;-85
2024/04/05 19:53:02;;;;;;;2.73;0.90;;;25.10;64.70;;;;;;5055545;28;20520;-95
2024/04/05 19:55:28;;;;;;;2.70;1.00;;;25.10;64.70;;;;;;5056024;28;20485;-86
2024/04/05 19:57:57;;;;;;;2.33;1.00;;;25.10;64.70;;;;;;5057246;28;20456;-89
2024/04/05 20:00:23;;;;;;;3.53;1.33;;;25.20;64.80;;;;;;5025824;28;20199;-86
2024/04/05 20:02:51;;;;;;;3.73;1.20;;;25.10;64.60;;;;;;5071480;28;20432;-91
2024/04/05 20:05:17;;;;;;;3.10;1.00;;;25.20;64.80;;;;;;5079666;28;20246;-88
2024/04/05 20:07:44;;;;;;;7.60;1.00;;;25.10;64.70;;;;;;5068442;28;20767;-86
2024/04/05 20:10:11;;;;;;;1.97;0.90;;;25.20;64.80;;;;;;5058675;28;20217;-85
2024/04/05 20:12:40;;;;;;;2.67;1.20;;;25.10;64.80;;;;;;5054697;28;20449;-92
2024/04/05 20:15:06;;;;;;;4.83;1.30;;;25.10;64.80;;;;;;5055328;28;20531;-85
2024/04/05 20:17:34;;;;;;;2.20;1.00;;;25.10;64.70;;;;;;5056466;28;20936;-84
2024/04/05 20:20:00;;;;;;;2.10;1.00;;;25.10;64.60;;;;;;5055005;28;20495;-92
2024/04/05 20:22:27;;;;;;;4.50;1.50;;;25.20;64.80;;;;;;5054911;28;20441;-86
2024/04/05 20:24:53;;;;;;;3.47;1.10;;;25.10;64.60;;;;;;5055688;28;20451;-85
2024/04/05 20:27:21;;;;;;;3.70;1.10;;;25.10;64.70;;;;;;5054914;28;20863;-84
2024/04/05 20:32:32;;;;;;;1.80;0.90;;;25.10;64.70;;;;;;5054597;28;20432;-87
2024/04/05 20:35:00;;;;;;;3.30;1.00;;;25.10;64.80;;;;;;5054959;28;20485;-85
2024/04/05 20:37:27;;;;;;;3.57;1.10;;;25.10;64.90;;;;;;5054856;28;20453;-85
2024/04/05 20:39:53;;;;;;;1.70;0.90;;;25.10;64.90;;;;;;5055787;28;20445;-85
2024/04/05 20:42:22;;;;;;;3.00;1.57;;;25.10;64.90;;;;;;5054342;28;20444;-94
2024/04/05 20:44:49;;;;;;;2.73;1.10;;;25.10;65.00;;;;;;5054231;28;20447;-92
2024/04/05 20:47:16;;;;;;;2.17;1.33;;;25.10;65.00;;;;;;5054548;28;20438;-86
2024/04/05 20:49:42;;;;;;;1.80;1.00;;;25.20;65.20;;;;;;5053501;28;20993;-82
2024/04/05 20:52:09;;;;;;;3.60;0.90;;;25.10;65.10;;;;;;5054227;28;20443;-84
2024/04/05 20:54:36;;;;;;;5.30;1.07;;;25.10;64.30;;;;;;5054019;28;20499;-83
2024/04/05 20:57:04;;;;;;;1.70;0.90;;;25.10;65.20;;;;;;5054124;28;20453;-84
2024/04/05 20:59:32;;;;;;;6.73;1.20;;;25.10;65.00;;;;;;5053944;28;20445;-83
2024/04/05 21:01:59;;;;;;;2.17;1.00;;;25.10;65.00;;;;;;5055632;28;20562;-83
2024/04/05 21:04:25;;;;;;;1.93;0.97;;;25.10;65.00;;;;;;5054068;28;20453;-94
2024/04/05 21:06:54;;;;;;;3.73;1.10;;;25.10;64.90;;;;;;5054465;28;20439;-84
2024/04/05 21:09:20;;;;;;;2.90;1.10;;;25.10;64.90;;;;;;5054060;28;20768;-94